createdAt,value
2023-06-24T00:00:17.533Z,63.83
2023-06-24T00:02:46.980Z,64.02
2023-06-24T00:05:14.806Z,64.02
2023-06-24T00:07:46.712Z,64.05
2023-06-24T00:10:17.340Z,64.13
2023-06-24T00:12:47.192Z,64.12
2023-06-24T00:15:15.583Z,64.20
2023-06-24T00:17:43.566Z,64.10
2023-06-24T00:20:15.825Z,65.94
2023-06-24T00:22:45.407Z,64.25
2023-06-24T00:25:13.798Z,65.59
2023-06-24T00:27:41.815Z,64.13
2023-06-24T00:30:11.731Z,65.54
2023-06-24T00:32:39.747Z,65.49
2023-06-24T00:35:08.849Z,65.50
2023-06-24T00:37:38.095Z,65.91
2023-06-24T00:40:12.320Z,65.60
2023-06-24T00:42:40.780Z,66.13
2023-06-24T00:45:11.247Z,66.34
2023-06-24T00:47:40.173Z,65.71
2023-06-24T00:50:09.616Z,65.06
2023-06-24T00:52:43.248Z,64.05
2023-06-24T00:55:13.799Z,64.52
2023-06-24T00:57:43.156Z,65.74
2023-06-24T01:00:15.561Z,66.17
2023-06-24T01:02:44.685Z,66.14
2023-06-24T01:05:13.564Z,66.09
2023-06-24T01:07:44.589Z,65.52
2023-06-24T01:10:15.309Z,66.64
2023-06-24T01:12:45.083Z,66.47
2023-06-24T01:15:14.350Z,65.85
2023-06-24T01:17:50.093Z,66.11
2023-06-24T01:20:29.458Z,67.00
2023-06-24T01:23:57.717Z,66.67
2023-06-24T01:27:06.520Z,66.90
2023-06-24T01:29:55.334Z,66.31
2023-06-24T01:32:34.385Z,65.86
2023-06-24T01:35:11.415Z,66.10
2023-06-24T01:37:45.977Z,65.99
2023-06-24T01:40:22.995Z,67.02
2023-06-24T01:42:52.473Z,67.05
2023-06-24T01:45:27.212Z,66.81
2023-06-24T01:48:12.053Z,66.15
2023-06-24T01:50:44.876Z,67.41
2023-06-24T01:53:15.167Z,67.69
2023-06-24T01:55:46.039Z,68.33
2023-06-24T01:58:18.582Z,67.99
2023-06-24T02:00:47.378Z,68.72
2023-06-24T02:03:17.715Z,68.61
2023-06-24T02:05:49.914Z,67.40
2023-06-24T02:08:19.564Z,67.83
2023-06-24T02:10:49.612Z,69.26
2023-06-24T02:13:19.992Z,68.77
2023-06-24T02:15:52.074Z,67.73
2023-06-24T02:18:24.401Z,68.40
2023-06-24T02:20:54.301Z,69.20
2023-06-24T02:23:24.609Z,69.14
2023-06-24T02:25:57.071Z,68.99
2023-06-24T02:28:26.314Z,67.82
2023-06-24T02:30:55.244Z,67.78
2023-06-24T02:33:24.676Z,67.57
2023-06-24T02:35:52.604Z,67.89
2023-06-24T02:38:20.779Z,68.29
2023-06-24T02:40:49.197Z,68.17
2023-06-24T02:43:17.370Z,68.38
2023-06-24T02:45:46.472Z,67.75
2023-06-24T02:48:17.184Z,67.89
2023-06-24T02:50:48.183Z,68.74
2023-06-24T02:53:17.906Z,68.17
2023-06-24T02:55:47.648Z,68.85
2023-06-24T02:58:16.202Z,67.52
2023-06-24T03:00:44.107Z,67.76
2023-06-24T03:03:13.208Z,68.60
2023-06-24T03:05:42.384Z,68.18
2023-06-24T03:08:12.621Z,67.71
2023-06-24T03:10:41.872Z,66.89
2023-06-24T03:13:11.076Z,66.93
2023-06-24T03:15:39.043Z,67.00
2023-06-24T03:18:07.148Z,66.97
2023-06-24T03:20:39.885Z,66.99
2023-06-24T03:23:08.584Z,65.83
2023-06-24T03:25:37.973Z,65.75
2023-06-24T03:28:08.499Z,66.70
2023-06-24T03:30:36.594Z,66.11
2023-06-24T03:33:04.635Z,65.92
2023-06-24T03:35:33.825Z,66.65
2023-06-24T03:38:02.006Z,65.35
2023-06-24T03:40:29.901Z,66.04
2023-06-24T03:42:59.279Z,66.53
2023-06-24T03:45:27.224Z,67.34
2023-06-24T03:47:56.363Z,67.72
2023-06-24T03:50:24.318Z,69.05
2023-06-24T03:52:52.210Z,68.59
2023-06-24T03:55:20.178Z,68.46
2023-06-24T03:57:48.080Z,68.73
2023-06-24T04:00:18.916Z,68.13
2023-06-24T04:02:47.344Z,67.12
2023-06-24T04:05:15.641Z,67.11
2023-06-24T04:07:48.394Z,67.00
2023-06-24T04:10:16.621Z,68.74
2023-06-24T04:12:44.568Z,67.57
2023-06-24T04:15:13.485Z,67.55
2023-06-24T04:17:42.951Z,68.90
2023-06-24T04:20:12.165Z,67.62
2023-06-24T04:22:43.418Z,67.30
2023-06-24T04:25:11.518Z,67.60
2023-06-24T04:27:39.845Z,67.91
2023-06-24T04:30:09.380Z,66.58
2023-06-24T04:32:37.412Z,65.36
2023-06-24T04:35:07.310Z,65.03
2023-06-24T04:37:35.278Z,65.90
2023-06-24T04:40:03.838Z,64.75
2023-06-24T04:42:31.775Z,65.96
2023-06-24T04:44:59.666Z,65.04
2023-06-24T04:47:27.607Z,62.09
2023-06-24T04:49:55.528Z,62.36
2023-06-24T04:52:25.671Z,61.87
2023-06-24T04:54:53.571Z,62.16
2023-06-24T04:57:30.869Z,59.87
2023-06-24T05:00:00.994Z,61.35
2023-06-24T05:02:35.481Z,62.73
2023-06-24T05:05:03.517Z,61.97
2023-06-24T05:07:34.225Z,61.59
2023-06-24T05:10:02.301Z,61.40
2023-06-24T05:12:30.214Z,61.70
2023-06-24T05:14:58.199Z,62.98
2023-06-24T05:17:26.631Z,61.92
2023-06-24T05:19:54.588Z,62.18
2023-06-24T05:22:22.629Z,63.24
2023-06-24T05:24:52.080Z,62.31
2023-06-24T05:27:19.995Z,63.02
2023-06-24T05:29:48.008Z,61.76
2023-06-24T05:32:18.300Z,61.08
2023-06-24T05:34:46.510Z,61.05
2023-06-24T05:37:14.713Z,58.33
2023-06-24T05:39:42.612Z,57.30
2023-06-24T05:42:11.952Z,55.38
2023-06-24T05:44:39.893Z,56.51
2023-06-24T05:47:08.085Z,53.62
2023-06-24T05:49:36.416Z,51.25
2023-06-24T05:52:04.868Z,49.83
2023-06-24T05:54:32.948Z,50.07
2023-06-24T05:57:00.816Z,50.41
2023-06-24T05:59:32.416Z,47.31
2023-06-24T06:02:02.455Z,48.05
2023-06-24T06:04:31.732Z,46.97
2023-06-24T06:06:59.691Z,48.50
2023-06-24T06:09:27.670Z,46.58
2023-06-24T06:11:55.687Z,45.31
2023-06-24T06:14:23.631Z,44.85
2023-06-24T06:16:52.920Z,46.97
2023-06-24T06:19:21.999Z,45.93
2023-06-24T06:21:51.327Z,45.25
2023-06-24T06:24:19.430Z,44.85
2023-06-24T06:26:47.432Z,44.38
2023-06-24T06:29:15.450Z,44.54
2023-06-24T06:31:43.430Z,44.39
2023-06-24T06:34:12.756Z,43.31
2023-06-24T06:36:40.717Z,41.16
2023-06-24T06:39:08.636Z,40.11
2023-06-24T06:41:36.666Z,41.67
2023-06-24T06:44:04.594Z,41.43
2023-06-24T06:46:33.149Z,42.27
2023-06-24T06:49:01.543Z,42.64
2023-06-24T06:51:30.862Z,39.76
2023-06-24T06:53:59.021Z,41.91
2023-06-24T06:56:27.786Z,40.61
2023-06-24T06:58:56.296Z,42.42
2023-06-24T07:01:24.430Z,39.93
2023-06-24T07:03:54.007Z,39.07
2023-06-24T07:06:22.290Z,37.13
2023-06-24T07:08:52.085Z,37.96
2023-06-24T07:11:20.320Z,37.50
2023-06-24T07:13:51.871Z,40.11
2023-06-24T07:16:20.033Z,39.67
2023-06-24T07:18:48.010Z,39.55
2023-06-24T07:21:15.932Z,36.83
2023-06-24T07:23:43.871Z,35.79
2023-06-24T07:26:13.344Z,37.44
2023-06-24T07:28:42.487Z,37.55
2023-06-24T07:31:11.275Z,35.79
2023-06-24T07:33:39.294Z,36.35
2023-06-24T07:36:08.970Z,39.07
2023-06-24T07:38:37.836Z,40.12
2023-06-24T07:41:05.905Z,37.05
2023-06-24T07:43:35.271Z,38.05
2023-06-24T07:46:03.936Z,40.96
2023-06-24T07:48:31.859Z,39.95
2023-06-24T07:51:00.293Z,40.14
2023-06-24T07:53:28.392Z,41.30
2023-06-24T07:55:56.399Z,40.64
2023-06-24T07:58:24.325Z,40.56
2023-06-24T08:00:54.128Z,37.46
2023-06-24T08:03:22.876Z,40.19
2023-06-24T08:05:51.580Z,38.65
2023-06-24T08:08:21.794Z,37.19
2023-06-24T08:10:50.284Z,38.58
2023-06-24T08:13:18.193Z,40.01
2023-06-24T08:15:46.538Z,37.01
2023-06-24T08:18:15.924Z,37.48
2023-06-24T08:20:44.445Z,37.91
2023-06-24T08:23:12.344Z,35.73
2023-06-24T08:25:40.397Z,37.44
2023-06-24T08:28:08.345Z,36.55
2023-06-24T08:30:36.310Z,34.56
2023-06-24T08:33:04.420Z,38.08
2023-06-24T08:35:33.821Z,34.94
2023-06-24T08:38:02.091Z,35.21
2023-06-24T08:40:31.791Z,36.58
2023-06-24T08:43:00.506Z,38.80
2023-06-24T08:45:28.445Z,35.41
2023-06-24T08:47:57.927Z,33.96
2023-06-24T08:50:33.232Z,35.28
2023-06-24T08:53:07.554Z,34.13
2023-06-24T08:55:44.455Z,32.99
2023-06-24T08:58:12.564Z,32.47
2023-06-24T09:00:40.667Z,32.36
2023-06-24T09:03:08.708Z,32.59
2023-06-24T09:05:37.005Z,31.28
2023-06-24T09:08:07.083Z,31.00
2023-06-24T09:10:37.254Z,30.61
2023-06-24T09:13:07.666Z,32.36
2023-06-24T09:15:37.994Z,31.98
2023-06-24T09:18:07.369Z,30.82
2023-06-24T09:20:40.659Z,30.92
2023-06-24T09:23:10.220Z,28.71
2023-06-24T09:25:38.946Z,30.66
2023-06-24T09:28:07.285Z,27.97
2023-06-24T09:30:35.242Z,30.71
2023-06-24T09:33:03.956Z,31.35
2023-06-24T09:35:38.494Z,28.97
2023-06-24T09:38:06.639Z,29.53
2023-06-24T09:40:38.276Z,30.45
2023-06-24T09:43:10.144Z,28.34
2023-06-24T09:45:38.306Z,28.28
2023-06-24T09:48:07.171Z,29.56
2023-06-24T09:50:36.220Z,29.30
2023-06-24T09:53:05.101Z,27.09
2023-06-24T09:55:33.598Z,27.20
2023-06-24T09:58:03.715Z,25.40
2023-06-24T10:00:31.824Z,26.06
2023-06-24T10:03:01.126Z,25.26
2023-06-24T10:05:30.182Z,24.00
2023-06-24T10:07:58.085Z,25.44
2023-06-24T10:10:26.075Z,22.52
2023-06-24T10:12:54.331Z,23.68
2023-06-24T10:15:24.399Z,26.98
2023-06-24T10:18:01.182Z,25.90
2023-06-24T10:20:40.337Z,26.62
2023-06-24T10:23:08.834Z,24.75
2023-06-24T10:25:39.342Z,23.25
2023-06-24T10:28:07.450Z,24.38
2023-06-24T10:30:39.181Z,24.16
2023-06-24T10:33:12.690Z,25.86
2023-06-24T10:35:45.196Z,25.79
2023-06-24T10:38:13.192Z,23.58
2023-06-24T10:40:44.602Z,24.38
2023-06-24T10:43:30.831Z,21.63
2023-06-24T10:46:01.186Z,22.62
2023-06-24T10:48:29.559Z,22.99
2023-06-24T10:50:57.522Z,21.41
2023-06-24T10:53:25.534Z,23.45
2023-06-24T10:55:53.565Z,23.13
2023-06-24T10:58:21.758Z,23.11
2023-06-24T11:00:51.029Z,23.42
2023-06-24T11:03:21.401Z,23.19
2023-06-24T11:05:51.173Z,23.19
2023-06-24T11:08:19.171Z,25.09
2023-06-24T11:10:48.599Z,25.28
2023-06-24T11:13:17.500Z,24.13
2023-06-24T11:15:45.387Z,24.32
2023-06-24T11:18:13.625Z,24.89
2023-06-24T11:20:43.862Z,24.05
2023-06-24T11:23:13.114Z,25.18
2023-06-24T11:25:43.090Z,23.91
2023-06-24T11:28:23.052Z,24.49
2023-06-24T11:30:51.956Z,23.64
2023-06-24T11:33:29.939Z,24.92
2023-06-24T11:35:59.587Z,22.55
2023-06-24T11:38:33.172Z,23.99
2023-06-24T11:41:01.352Z,24.41
2023-06-24T11:43:30.205Z,25.68
2023-06-24T11:45:58.154Z,23.73
2023-06-24T11:48:30.749Z,23.36
2023-06-24T11:51:00.318Z,25.74
2023-06-24T11:53:44.296Z,23.66
2023-06-24T11:56:12.566Z,24.72
2023-06-24T11:58:41.426Z,26.39
2023-06-24T12:01:09.912Z,27.46
2023-06-24T12:03:37.847Z,26.49
2023-06-24T12:06:07.452Z,28.33
2023-06-24T12:08:50.645Z,27.67
2023-06-24T12:11:20.099Z,28.02
2023-06-24T12:13:48.138Z,28.20
2023-06-24T12:16:16.158Z,27.64
2023-06-24T12:18:44.050Z,26.30
2023-06-24T12:21:13.996Z,26.42
2023-06-24T12:23:41.914Z,25.23
2023-06-24T12:26:09.778Z,25.90
2023-06-24T12:28:37.685Z,25.58
2023-06-24T12:31:05.692Z,26.07
2023-06-24T12:33:33.683Z,25.96
2023-06-24T12:36:01.712Z,27.35
2023-06-24T12:38:30.990Z,27.33
2023-06-24T12:40:59.791Z,25.74
2023-06-24T12:43:27.725Z,25.75
2023-06-24T12:45:57.118Z,25.23
2023-06-24T12:48:25.090Z,24.61
2023-06-24T12:50:54.363Z,23.23
2023-06-24T12:53:23.442Z,24.16
2023-06-24T12:55:52.682Z,23.13
2023-06-24T12:58:26.047Z,22.89
2023-06-24T13:00:54.252Z,24.04
2023-06-24T13:03:22.462Z,21.67
2023-06-24T13:05:50.334Z,25.75
2023-06-24T13:08:18.253Z,22.35
2023-06-24T13:10:46.232Z,23.03
2023-06-24T13:13:15.828Z,22.79
2023-06-24T13:15:43.712Z,24.17
2023-06-24T13:18:11.603Z,23.34
2023-06-24T13:20:39.500Z,26.04
2023-06-24T13:23:07.457Z,26.38
2023-06-24T13:25:35.874Z,27.98
2023-06-24T13:28:04.149Z,25.99
2023-06-24T13:30:33.673Z,27.28
2023-06-24T13:33:01.787Z,27.06
2023-06-24T13:35:29.793Z,26.48
2023-06-24T13:37:59.347Z,26.01
2023-06-24T13:40:27.298Z,27.47
2023-06-24T13:42:55.295Z,27.99
2023-06-24T13:45:23.180Z,28.28
2023-06-24T13:47:52.620Z,28.50
2023-06-24T13:50:20.889Z,29.56
2023-06-24T13:52:48.796Z,28.93
2023-06-24T13:55:17.045Z,28.76
2023-06-24T13:57:44.945Z,30.38
2023-06-24T14:00:15.410Z,29.12
2023-06-24T14:02:43.563Z,30.64
2023-06-24T14:05:13.201Z,29.66
2023-06-24T14:07:41.084Z,28.08
2023-06-24T14:10:09.922Z,28.85
2023-06-24T14:12:38.570Z,30.53
2023-06-24T14:15:07.793Z,31.20
2023-06-24T14:17:35.798Z,28.66
2023-06-24T14:20:04.294Z,30.29
2023-06-24T14:22:33.869Z,29.76
2023-06-24T14:25:01.857Z,29.14
2023-06-24T14:27:29.836Z,28.86
2023-06-24T14:29:57.805Z,30.77
2023-06-24T14:32:27.821Z,28.97
2023-06-24T14:34:56.702Z,30.87
2023-06-24T14:37:24.609Z,32.31
2023-06-24T14:39:53.957Z,31.53
2023-06-24T14:42:22.038Z,32.06
2023-06-24T14:44:49.868Z,31.53
2023-06-24T14:47:17.830Z,31.51
2023-06-24T14:49:45.739Z,31.53
2023-06-24T14:52:13.684Z,32.36
2023-06-24T14:54:41.513Z,33.73
2023-06-24T14:57:10.666Z,32.70
2023-06-24T14:59:38.584Z,32.90
2023-06-24T15:02:07.135Z,32.92
2023-06-24T15:04:35.183Z,33.22
2023-06-24T15:07:03.133Z,32.51
2023-06-24T15:09:31.062Z,32.75
2023-06-24T15:11:58.980Z,32.07
2023-06-24T15:14:28.209Z,31.66
2023-06-24T15:16:59.091Z,31.98
2023-06-24T15:19:27.088Z,31.04
2023-06-24T15:21:55.536Z,32.90
2023-06-24T15:24:23.559Z,32.87
2023-06-24T15:26:51.436Z,32.27
2023-06-24T15:29:19.345Z,31.50
2023-06-24T15:31:48.925Z,32.42
2023-06-24T15:34:16.839Z,31.62
2023-06-24T15:36:45.244Z,32.69
2023-06-24T15:39:13.861Z,33.21
2023-06-24T15:41:41.823Z,32.75
2023-06-24T15:44:09.766Z,33.87
2023-06-24T15:46:38.639Z,32.30
2023-06-24T15:49:07.739Z,32.40
2023-06-24T15:51:35.632Z,30.97
2023-06-24T15:54:03.676Z,31.95
2023-06-24T15:56:31.668Z,30.39
2023-06-24T15:58:59.692Z,31.06
2023-06-24T16:01:27.579Z,30.74
2023-06-24T16:03:56.859Z,31.36
2023-06-24T16:06:26.308Z,32.76
2023-06-24T16:08:54.489Z,31.53
2023-06-24T16:11:22.400Z,32.73
2023-06-24T16:13:50.418Z,32.92
2023-06-24T16:16:18.610Z,33.44
2023-06-24T16:18:46.568Z,33.51
2023-06-24T16:21:14.514Z,33.62
2023-06-24T16:23:43.871Z,33.29
2023-06-24T16:26:11.797Z,34.33
2023-06-24T16:28:39.786Z,32.83
2023-06-24T16:31:07.839Z,33.26
2023-06-24T16:33:36.008Z,34.29
2023-06-24T16:36:04.065Z,34.07
2023-06-24T16:38:32.025Z,32.67
2023-06-24T16:41:02.425Z,33.06
2023-06-24T16:43:30.318Z,33.23
2023-06-24T16:45:58.326Z,34.08
2023-06-24T16:48:26.255Z,32.73
2023-06-24T16:50:54.150Z,34.25
2023-06-24T16:53:22.091Z,32.80
2023-06-24T16:55:50.020Z,33.05
2023-06-24T16:58:19.269Z,34.13
2023-06-24T17:00:47.126Z,33.42
2023-06-24T17:03:15.188Z,33.69
2023-06-24T17:05:43.766Z,33.51
2023-06-24T17:08:12.578Z,33.60
2023-06-24T17:10:40.914Z,34.42
2023-06-24T17:13:08.857Z,34.25
2023-06-24T17:15:38.046Z,34.94
2023-06-24T17:18:06.222Z,34.56
2023-06-24T17:20:34.516Z,34.80
2023-06-24T17:23:02.604Z,34.60
2023-06-24T17:25:30.607Z,35.11
2023-06-24T17:27:58.636Z,35.88
2023-06-24T17:30:26.953Z,35.32
2023-06-24T17:32:56.405Z,35.61
2023-06-24T17:35:24.290Z,36.05
2023-06-24T17:37:52.252Z,35.76
2023-06-24T17:40:20.250Z,35.89
2023-06-24T17:42:48.281Z,36.97
2023-06-24T17:45:16.215Z,37.14
2023-06-24T17:47:44.192Z,38.21
2023-06-24T17:50:13.722Z,37.87
2023-06-24T17:52:42.629Z,38.76
2023-06-24T17:55:10.976Z,38.73
2023-06-24T17:57:38.903Z,39.37
2023-06-24T18:00:10.473Z,38.85
2023-06-24T18:02:38.619Z,38.76
2023-06-24T18:05:07.914Z,38.93
2023-06-24T18:07:37.382Z,39.72
2023-06-24T18:10:05.986Z,39.88
2023-06-24T18:12:33.871Z,39.83
2023-06-24T18:15:01.716Z,39.62
2023-06-24T18:17:29.751Z,40.08
2023-06-24T18:19:57.821Z,40.38
2023-06-24T18:22:25.846Z,40.94
2023-06-24T18:24:55.554Z,40.87
2023-06-24T18:27:25.094Z,40.89
2023-06-24T18:29:53.741Z,40.78
2023-06-24T18:32:22.436Z,41.22
2023-06-24T18:34:50.690Z,40.65
2023-06-24T18:37:18.655Z,40.66
2023-06-24T18:39:46.612Z,40.82
2023-06-24T18:42:15.966Z,39.24
2023-06-24T18:44:43.899Z,39.18
2023-06-24T18:47:11.785Z,39.83
2023-06-24T18:49:39.785Z,39.29
2023-06-24T18:52:08.730Z,39.90
2023-06-24T18:54:36.450Z,39.80
2023-06-24T18:57:04.818Z,40.15
2023-06-24T18:59:34.081Z,38.66
2023-06-24T19:02:02.013Z,40.83
2023-06-24T19:04:31.526Z,41.21
2023-06-24T19:07:00.854Z,41.58
2023-06-24T19:09:28.901Z,42.21
2023-06-24T19:11:56.817Z,42.52
2023-06-24T19:14:24.795Z,41.48
2023-06-24T19:16:54.112Z,41.72
2023-06-24T19:19:22.043Z,42.37
2023-06-24T19:21:49.973Z,43.13
2023-06-24T19:24:18.715Z,42.80
2023-06-24T19:26:46.728Z,43.15
2023-06-24T19:29:14.821Z,43.95
2023-06-24T19:31:42.790Z,43.66
2023-06-24T19:34:12.582Z,42.90
2023-06-24T19:36:40.599Z,42.08
2023-06-24T19:39:08.546Z,43.22
2023-06-24T19:41:36.483Z,44.04
2023-06-24T19:44:07.293Z,42.69
2023-06-24T19:46:41.207Z,43.58
2023-06-24T19:49:11.863Z,44.83
2023-06-24T19:51:40.387Z,46.18
2023-06-24T19:54:08.624Z,46.47
2023-06-24T19:56:36.687Z,45.89
2023-06-24T19:59:04.759Z,46.61
2023-06-24T20:01:32.749Z,47.55
2023-06-24T20:04:00.812Z,48.24
2023-06-24T20:06:30.279Z,49.59
2023-06-24T20:08:58.298Z,49.27
2023-06-24T20:11:26.210Z,51.70
2023-06-24T20:13:54.053Z,50.94
2023-06-24T20:16:21.938Z,50.26
2023-06-24T20:18:50.357Z,51.87
2023-06-24T20:21:18.560Z,52.57
2023-06-24T20:23:47.913Z,52.36
2023-06-24T20:26:15.794Z,52.52
2023-06-24T20:28:43.782Z,52.20
2023-06-24T20:31:11.816Z,55.21
2023-06-24T20:33:39.743Z,55.25
2023-06-24T20:36:09.213Z,56.69
2023-06-24T20:38:37.496Z,56.66
2023-06-24T20:41:06.771Z,57.44
2023-06-24T20:43:34.718Z,57.48
2023-06-24T20:46:02.786Z,57.80
2023-06-24T20:48:30.923Z,57.11
2023-06-24T20:50:58.883Z,59.13
2023-06-24T20:53:26.811Z,59.41
2023-06-24T20:55:54.774Z,60.18
2023-06-24T20:58:24.021Z,60.26
2023-06-24T21:00:51.941Z,60.13
2023-06-24T21:03:19.972Z,61.26
2023-06-24T21:05:48.069Z,61.28
2023-06-24T21:08:16.057Z,61.80
2023-06-24T21:10:43.929Z,62.31
2023-06-24T21:13:11.883Z,62.89
2023-06-24T21:15:41.194Z,62.84
2023-06-24T21:18:08.955Z,62.44
2023-06-24T21:20:37.108Z,62.37
2023-06-24T21:23:05.296Z,62.60
2023-06-24T21:25:33.333Z,62.31
2023-06-24T21:28:01.300Z,62.45
2023-06-24T21:30:29.387Z,61.28
2023-06-24T21:32:58.878Z,62.43
2023-06-24T21:35:26.914Z,62.43
2023-06-24T21:37:54.862Z,61.69
2023-06-24T21:40:22.750Z,61.70
2023-06-24T21:42:50.722Z,61.55
2023-06-24T21:45:19.444Z,60.43
2023-06-24T21:47:47.413Z,61.26
2023-06-24T21:50:16.752Z,60.92
2023-06-24T21:52:44.774Z,60.97
2023-06-24T21:55:13.350Z,60.98
2023-06-24T21:57:44.325Z,60.76
2023-06-24T22:00:19.138Z,60.61
2023-06-24T22:02:47.968Z,60.39
2023-06-24T22:05:33.145Z,60.18
2023-06-24T22:08:03.886Z,59.79
2023-06-24T22:10:32.538Z,60.31
2023-06-24T22:13:00.568Z,59.68
2023-06-24T22:15:28.623Z,60.20
2023-06-24T22:17:56.570Z,59.08
2023-06-24T22:20:25.972Z,60.82
2023-06-24T22:22:54.232Z,59.69
2023-06-24T22:25:22.454Z,61.18
2023-06-24T22:27:50.611Z,60.76
2023-06-24T22:30:18.986Z,60.37
2023-06-24T22:32:46.938Z,58.77
2023-06-24T22:35:15.135Z,60.11
2023-06-24T22:37:44.909Z,60.00
2023-06-24T22:40:13.250Z,60.65
2023-06-24T22:42:41.601Z,59.72
2023-06-24T22:45:12.862Z,60.28
2023-06-24T22:47:42.207Z,60.43
2023-06-24T22:50:11.881Z,60.85
2023-06-24T22:52:39.846Z,60.93
2023-06-24T22:55:10.649Z,60.72
2023-06-24T22:57:39.214Z,61.52
2023-06-24T23:00:09.023Z,60.92
2023-06-24T23:02:37.681Z,60.83
2023-06-24T23:05:07.167Z,61.38
2023-06-24T23:07:35.703Z,62.01
2023-06-24T23:10:04.778Z,62.30
2023-06-24T23:12:35.834Z,62.43
2023-06-24T23:15:04.825Z,62.08
2023-06-24T23:17:33.463Z,62.25
2023-06-24T23:20:02.740Z,62.22
2023-06-24T23:22:31.346Z,62.97
2023-06-24T23:25:00.161Z,62.67
2023-06-24T23:27:37.592Z,61.68
2023-06-24T23:30:09.448Z,61.82
2023-06-24T23:32:42.353Z,62.27
2023-06-24T23:35:12.866Z,62.55
2023-06-24T23:37:41.555Z,62.72
2023-06-24T23:40:11.409Z,62.85
2023-06-24T23:42:43.272Z,62.87
2023-06-24T23:45:14.103Z,63.10
2023-06-24T23:47:42.121Z,63.52
2023-06-24T23:50:10.944Z,63.90
2023-06-24T23:52:39.382Z,63.60
2023-06-24T23:55:09.660Z,63.70
2023-06-24T23:57:37.786Z,64.20
